Terminal Aerodrome Forecast
Issued by NWS Pueblo, CO

Home | Current Version | Previous Version | Text Only | Print | Product List | Glossary On
Versions: 1 2 3 4 5 6 7 8 9 10 11 12 13 14 15 16 17 18 19 20 21 22 23 24 25 26 27 28 29 30 31 32 33 34 35 36 37 38 39 40 41 42 43 44 45 46 47 48 49 50
000
FTUS45 KPUB 181132
TAFPUB
TAF
KPUB 181132Z 1812/1912 31007KT P6SM SCT150
     FM181700 11007KT P6SM FEW070 BKN150
     FM181900 11009KT P6SM VCTS SCT070CB BKN120
     FM182100 35014KT P6SM VCTS SCT060CB BKN100
     FM190100 35007KT P6SM VCSH SCT070 BKN120
     FM190600 35005KT P6SM FEW100 SCT200=

USA.gov is the U.S. government's official web portal to all federal, state and local government web resources and services.